Gerd Maersk — OYGM2 — position and weather

sailwx.info

Track history (hours):
 
Tides and Currents Weather Stations Pressure Air Temp Water Temp Dewpoint Dewpoint Depression Visibility Wind Speed Wind Dir Waves Ship Positions

Gerd Maersk

Last reported at 2015-Mar-24 20:27 UTC. Time now 2015-Mar-31 22:04 UTC.
Position N 34°40' E 140°12'.

Length 367 m; draft 13.1 m.

Type: Ship (hazmat cat A). MMSI: 220415000.

Date/timePositionNaut miles runAvg speedWind from/ knotsBaromVisibWave heightAir tempDewpointWater temp
2015-Mar-24 20:27N 34°40' E 140°12'  
2015-Mar-21 03:19N 30°33' E 122°13'810.8
2015-Mar-21 02:33N 30°37' E 122°04'1 1.4
2015-Mar-21 01:32N 30°38' E 122°03'0 0.0
2015-Mar-21 00:32N 30°38' E 122°03'0 0.0
2015-Mar-20 23:05N 30°38' E 122°03'0 0.0
2015-Mar-20 22:20N 30°38' E 122°03'0 0.0
2015-Mar-20 19:32N 30°38' E 122°03'0 0.0
2015-Mar-20 18:20N 30°38' E 122°03'0 0.0
2015-Mar-20 15:27N 30°38' E 122°03'0 0.0
2015-Mar-20 14:24N 30°38' E 122°03'0 0.0
2015-Mar-20 13:33N 30°38' E 122°03'0 0.0
2015-Mar-20 12:30N 30°38' E 122°03'0 0.0
2015-Mar-20 11:18N 30°38' E 122°03'0 0.3
2015-Mar-20 10:33N 30°38' E 122°03'5 5.4
2015-Mar-20 09:33N 30°35' E 122°08'1111.1
2015-Mar-20 08:34N 30°33' E 122°20'7 6.6
2015-Mar-20 07:30N 30°31' E 122°28'7 6.4
2015-Mar-20 06:23N 30°30' E 122°36'6 6.1
2015-Mar-20 05:27N 30°28' E 122°43'9 6.6
2015-Mar-20 04:08N 30°24' E 122°52'43 5.6
2015-Mar-19 20:22N 29°42' E 122°41'7 5.9
2015-Mar-19 19:15N 29°39' E 122°34'8 8.7
2015-Mar-19 18:20N 29°41' E 122°25'910.4
2015-Mar-19 17:29N 29°46' E 122°17'1313.6
2015-Mar-19 16:34N 29°55' E 122°07'1413.7
2015-Mar-19 15:33N 29°57' E 121°51'1 1.0
2015-Mar-19 14:31N 29°57' E 121°50'0 0.0
2015-Mar-19 13:31N 29°57' E 121°50'0 0.0
2015-Mar-19 12:28N 29°57' E 121°50'0 0.0
2015-Mar-19 11:25N 29°57' E 121°50'0 0.0
2015-Mar-19 10:25N 29°57' E 121°50'0 0.0
2015-Mar-19 09:25N 29°57' E 121°50'0 0.0
2015-Mar-19 08:31N 29°57' E 121°50'0 0.0
2015-Mar-19 07:19N 29°57' E 121°50'0 0.0
2015-Mar-19 06:31N 29°57' E 121°50'0 0.0
2015-Mar-19 05:10N 29°57' E 121°50'0 0.0
2015-Mar-19 03:28N 29°57' E 121°50'0 0.0
2015-Mar-19 02:31N 29°57' E 121°50'0 0.0
2015-Mar-19 01:31N 29°57' E 121°50'0 0.0
2015-Mar-19 00:13N 29°57' E 121°50'0 0.0
2015-Mar-18 23:31N 29°57' E 121°50'0 0.0
2015-Mar-18 22:31N 29°57' E 121°50'0 0.0
2015-Mar-18 21:22N 29°57' E 121°50'0 0.0
2015-Mar-18 20:31N 29°57' E 121°50'0 0.0
2015-Mar-18 19:25N 29°57' E 121°50'0 0.0
2015-Mar-18 18:28N 29°57' E 121°50'2 2.7
2015-Mar-18 17:34N 29°57' E 121°53'1211.8
2015-Mar-18 16:33N 29°56' E 122°06'1212.2
2015-Mar-18 15:33N 29°47' E 122°16'9 9.3
2015-Mar-18 14:33N 29°44' E 122°27'6 1.8
2015-Mar-18 11:19N 29°45' E 122°33'0 0.1
2015-Mar-18 06:10N 29°44' E 122°33'0 0.1
2015-Mar-18 05:10N 29°44' E 122°33'0 0.1
2015-Mar-18 04:22N 29°44' E 122°33'0 0.1
2015-Mar-18 00:16N 29°45' E 122°33'0 0.0
2015-Mar-17 23:22N 29°45' E 122°33'0 0.0
2015-Mar-17 22:10N 29°45' E 122°33'0 0.1
2015-Mar-17 18:13N 29°44' E 122°33'0 0.1
2015-Mar-17 17:28N 29°44' E 122°33'0 0.0
2015-Mar-17 14:22N 29°45' E 122°33'0 0.1
2015-Mar-17 10:10N 29°45' E 122°33'0 0.0
2015-Mar-17 01:10N 29°45' E 122°33'0 0.0
2015-Mar-16 17:10N 29°44' E 122°33'0 0.1
2015-Mar-16 16:16N 29°44' E 122°33'0 0.0
2015-Mar-16 06:14N 29°44' E 122°33'7 9.5
2015-Mar-16 05:30N 29°38' E 122°36'1613.1
2015-Mar-16 04:16N 29°22' E 122°33'1013.0
2015-Mar-16 03:29N 29°12' E 122°31'38013.9
2015-Mar-15 00:12N 24°01' E 118°26'710.8
2015-Mar-14 23:33N 23°57' E 118°20'2411.1
2015-Mar-14 21:26N 23°43' E 117°59'  
Track history (hours):
 
Tides and Currents Weather Stations Pressure Air Temp Water Temp Dewpoint Dewpoint Depression Visibility Wind Speed Wind Dir Waves Ship Positions

Gerd Maersk

Last reported at 2015-Mar-24 20:27 UTC. Time now 2015-Mar-31 22:04 UTC.
Position N 34°40' E 140°12'.

Length 367 m; draft 13.1 m.

Type: Ship (hazmat cat A). MMSI: 220415000.

Date/timePositionNaut miles runAvg speedWind from/ knotsBaromVisibWave heightAir tempDewpointWater temp
2015-Mar-24 20:27N 34°40' E 140°12'  
2015-Mar-21 03:19N 30°33' E 122°13'810.8
2015-Mar-21 02:33N 30°37' E 122°04'1 1.4
2015-Mar-21 01:32N 30°38' E 122°03'0 0.0
2015-Mar-21 00:32N 30°38' E 122°03'0 0.0
2015-Mar-20 23:05N 30°38' E 122°03'0 0.0
2015-Mar-20 22:20N 30°38' E 122°03'0 0.0
2015-Mar-20 19:32N 30°38' E 122°03'0 0.0
2015-Mar-20 18:20N 30°38' E 122°03'0 0.0
2015-Mar-20 15:27N 30°38' E 122°03'0 0.0
2015-Mar-20 14:24N 30°38' E 122°03'0 0.0
2015-Mar-20 13:33N 30°38' E 122°03'0 0.0
2015-Mar-20 12:30N 30°38' E 122°03'0 0.0
2015-Mar-20 11:18N 30°38' E 122°03'0 0.3
2015-Mar-20 10:33N 30°38' E 122°03'5 5.4
2015-Mar-20 09:33N 30°35' E 122°08'1111.1
2015-Mar-20 08:34N 30°33' E 122°20'7 6.6
2015-Mar-20 07:30N 30°31' E 122°28'7 6.4
2015-Mar-20 06:23N 30°30' E 122°36'6 6.1
2015-Mar-20 05:27N 30°28' E 122°43'9 6.6
2015-Mar-20 04:08N 30°24' E 122°52'43 5.6
2015-Mar-19 20:22N 29°42' E 122°41'7 5.9
2015-Mar-19 19:15N 29°39' E 122°34'8 8.7
2015-Mar-19 18:20N 29°41' E 122°25'910.4
2015-Mar-19 17:29N 29°46' E 122°17'1313.6
2015-Mar-19 16:34N 29°55' E 122°07'1413.7
2015-Mar-19 15:33N 29°57' E 121°51'1 1.0
2015-Mar-19 14:31N 29°57' E 121°50'0 0.0
2015-Mar-19 13:31N 29°57' E 121°50'0 0.0
2015-Mar-19 12:28N 29°57' E 121°50'0 0.0
2015-Mar-19 11:25N 29°57' E 121°50'0 0.0
2015-Mar-19 10:25N 29°57' E 121°50'0 0.0
2015-Mar-19 09:25N 29°57' E 121°50'0 0.0
2015-Mar-19 08:31N 29°57' E 121°50'0 0.0
2015-Mar-19 07:19N 29°57' E 121°50'0 0.0
2015-Mar-19 06:31N 29°57' E 121°50'0 0.0
2015-Mar-19 05:10N 29°57' E 121°50'0 0.0
2015-Mar-19 03:28N 29°57' E 121°50'0 0.0
2015-Mar-19 02:31N 29°57' E 121°50'0 0.0
2015-Mar-19 01:31N 29°57' E 121°50'0 0.0
2015-Mar-19 00:13N 29°57' E 121°50'0 0.0
2015-Mar-18 23:31N 29°57' E 121°50'0 0.0
2015-Mar-18 22:31N 29°57' E 121°50'0 0.0
2015-Mar-18 21:22N 29°57' E 121°50'0 0.0
2015-Mar-18 20:31N 29°57' E 121°50'0 0.0
2015-Mar-18 19:25N 29°57' E 121°50'0 0.0
2015-Mar-18 18:28N 29°57' E 121°50'2 2.7
2015-Mar-18 17:34N 29°57' E 121°53'1211.8
2015-Mar-18 16:33N 29°56' E 122°06'1212.2
2015-Mar-18 15:33N 29°47' E 122°16'9 9.3
2015-Mar-18 14:33N 29°44' E 122°27'6 1.8
2015-Mar-18 11:19N 29°45' E 122°33'0 0.1
2015-Mar-18 06:10N 29°44' E 122°33'0 0.1
2015-Mar-18 05:10N 29°44' E 122°33'0 0.1
2015-Mar-18 04:22N 29°44' E 122°33'0 0.1
2015-Mar-18 00:16N 29°45' E 122°33'0 0.0
2015-Mar-17 23:22N 29°45' E 122°33'0 0.0
2015-Mar-17 22:10N 29°45' E 122°33'0 0.1
2015-Mar-17 18:13N 29°44' E 122°33'0 0.1
2015-Mar-17 17:28N 29°44' E 122°33'0 0.0
2015-Mar-17 14:22N 29°45' E 122°33'0 0.1
2015-Mar-17 10:10N 29°45' E 122°33'0 0.0
2015-Mar-17 01:10N 29°45' E 122°33'0 0.0
2015-Mar-16 17:10N 29°44' E 122°33'0 0.1
2015-Mar-16 16:16N 29°44' E 122°33'0 0.0
2015-Mar-16 06:14N 29°44' E 122°33'7 9.5
2015-Mar-16 05:30N 29°38' E 122°36'1613.1
2015-Mar-16 04:16N 29°22' E 122°33'1013.0
2015-Mar-16 03:29N 29°12' E 122°31'38013.9
2015-Mar-15 00:12N 24°01' E 118°26'710.8
2015-Mar-14 23:33N 23°57' E 118°20'2411.1
2015-Mar-14 21:26N 23°43' E 117°59'  

Dump ship's entire track history